Time;durP1;ratioP1;P1;durP2;ratioP2;P2;SDS_P1;SDS_P2;PMS_P1;PMS_P2;Temp;Humidity;BMP_temperature;BMP_pressure;BME280_temperature;BME280_humidity;BME280_pressure;Samples;Min_cycle;Max_cycle;Signal;HPM_P1;HPM_P2
2023/03/16 00:02:20;;;;;;;53.72;15.27;;;-1.10;99.90;;;;;;5027967;28;20100;-73
2023/03/16 00:04:46;;;;;;;72.75;14.93;;;-1.10;99.90;;;;;;5027131;28;20766;-73
2023/03/16 00:07:13;;;;;;;63.20;15.38;;;-1.20;99.90;;;;;;5027183;28;20478;-72
2023/03/16 00:09:40;;;;;;;42.10;13.23;;;-1.20;99.90;;;;;;5025523;28;20057;-71
2023/03/16 00:12:15;;;;;;;35.88;14.07;;;-1.20;99.90;;;;;;5027316;28;20032;-73
2023/03/16 00:14:46;;;;;;;33.38;14.18;;;-1.20;99.90;;;;;;5027203;28;20029;-73
2023/03/16 00:17:17;;;;;;;31.48;13.18;;;-1.30;99.90;;;;;;5028372;28;20030;-71
2023/03/16 00:19:50;;;;;;;31.75;13.68;;;-1.30;99.90;;;;;;5027796;28;20064;-73
2023/03/16 00:22:15;;;;;;;38.63;15.05;;;-1.30;99.90;;;;;;5027141;28;20021;-66
2023/03/16 00:24:42;;;;;;;29.55;13.05;;;-1.30;99.90;;;;;;5030858;28;20036;-73
2023/03/16 00:27:13;;;;;;;38.45;13.38;;;-1.30;99.90;;;;;;5028422;28;20576;-72
2023/03/16 00:29:45;;;;;;;45.90;14.13;;;-1.30;99.90;;;;;;5028068;28;20033;-71
2023/03/16 00:32:12;;;;;;;39.30;14.52;;;-1.40;99.90;;;;;;5026568;28;20037;-73
2023/03/16 00:34:38;;;;;;;31.25;12.70;;;-1.50;99.90;;;;;;5026078;28;20042;-71
2023/03/16 00:37:04;;;;;;;41.35;13.38;;;-1.40;99.90;;;;;;5027268;28;20048;-71
2023/03/16 00:39:34;;;;;;;40.17;12.27;;;-1.50;99.90;;;;;;5024858;28;20478;-73
2023/03/16 00:42:00;;;;;;;30.17;11.20;;;-1.50;99.90;;;;;;5026745;28;20056;-69
2023/03/16 00:44:26;;;;;;;27.45;11.93;;;-1.50;99.90;;;;;;5021797;28;20040;-64
2023/03/16 00:46:51;;;;;;;31.42;12.35;;;-1.60;99.90;;;;;;5026842;28;20033;-73
2023/03/16 00:49:17;;;;;;;29.80;11.57;;;-1.60;99.90;;;;;;5026613;28;20028;-72
2023/03/16 00:51:44;;;;;;;29.40;11.82;;;-1.50;99.90;;;;;;5026746;28;20041;-73
2023/03/16 00:54:11;;;;;;;30.33;13.07;;;-1.50;99.90;;;;;;5029666;28;20480;-73
2023/03/16 00:56:36;;;;;;;28.30;12.05;;;-1.50;99.90;;;;;;5025792;28;20031;-72
2023/03/16 00:59:02;;;;;;;27.52;11.95;;;-1.50;99.90;;;;;;5027538;28;20037;-73
2023/03/16 01:01:27;;;;;;;26.95;11.48;;;-1.50;99.90;;;;;;5026834;28;20108;-65
2023/03/16 01:03:53;;;;;;;27.38;11.18;;;-1.50;99.90;;;;;;5027079;28;20042;-71
2023/03/16 01:06:19;;;;;;;24.58;10.95;;;-1.50;99.90;;;;;;5025962;28;20469;-72
2023/03/16 01:08:45;;;;;;;26.95;11.45;;;-1.60;99.90;;;;;;5025530;28;20064;-73
2023/03/16 01:11:17;;;;;;;27.65;11.32;;;-1.60;99.90;;;;;;5024688;28;20078;-73
2023/03/16 01:13:43;;;;;;;25.73;10.85;;;-1.60;99.90;;;;;;5025152;28;20049;-73
2023/03/16 01:16:09;;;;;;;25.23;11.70;;;-1.60;99.90;;;;;;5024332;28;20631;-70
2023/03/16 01:18:35;;;;;;;26.48;11.07;;;-1.60;99.90;;;;;;5026785;28;20384;-73
2023/03/16 01:21:02;;;;;;;37.78;10.90;;;-1.60;99.90;;;;;;5024870;28;20041;-73
2023/03/16 01:23:31;;;;;;;27.17;11.77;;;-1.60;99.90;;;;;;5026972;28;20033;-66
2023/03/16 01:25:57;;;;;;;31.83;12.55;;;-1.70;99.90;;;;;;5026196;28;20041;-73
2023/03/16 01:28:25;;;;;;;30.88;12.40;;;-1.70;99.90;;;;;;5026550;28;20025;-73
2023/03/16 01:30:57;;;;;;;28.73;12.00;;;-1.70;99.90;;;;;;5026560;28;20037;-73
2023/03/16 01:33:25;;;;;;;31.02;12.93;;;-1.70;99.90;;;;;;5025336;28;20047;-73
2023/03/16 01:36:00;;;;;;;29.20;12.73;;;-1.70;99.90;;;;;;5025502;28;20771;-74
2023/03/16 01:38:26;;;;;;;30.15;12.75;;;-1.70;99.90;;;;;;5020663;28;20387;-73
2023/03/16 01:40:53;;;;;;;32.17;12.85;;;-1.70;99.90;;;;;;5026522;28;20033;-67
2023/03/16 01:43:22;;;;;;;30.88;12.27;;;-1.70;99.90;;;;;;5028675;28;20033;-72
2023/03/16 01:46:13;;;;;;;32.95;13.00;;;-1.70;99.90;;;;;;5030415;28;20033;-72
2023/03/16 01:48:42;;;;;;;;;;;-1.70;99.90;;;;;;5031673;28;20029;-71
2023/03/16 01:51:15;;;;;;;30.75;11.35;;;-1.70;99.90;;;;;;5029395;28;19940;-71
2023/03/16 01:53:44;;;;;;;32.08;12.85;;;-1.70;99.90;;;;;;5028448;28;20033;-72
2023/03/16 01:56:15;;;;;;;27.48;11.40;;;-1.80;99.90;;;;;;5027488;28;20037;-73
2023/03/16 01:58:41;;;;;;;;;;;-1.80;99.90;;;;;;5030450;28;20055;-73
2023/03/16 02:01:07;;;;;;;26.40;11.15;;;-1.80;99.90;;;;;;5030241;28;20373;-73
2023/03/16 02:03:33;;;;;;;31.80;11.73;;;-1.80;99.90;;;;;;5029745;28;20029;-72
2023/03/16 02:06:08;;;;;;;31.48;12.48;;;-1.90;99.90;;;;;;5027972;28;20060;-73
2023/03/16 02:08:37;;;;;;;31.55;12.70;;;-1.90;99.90;;;;;;5034656;28;20033;-71
2023/03/16 02:11:04;;;;;;;31.27;12.55;;;-1.80;99.90;;;;;;5030936;28;20464;-73
2023/03/16 02:13:32;;;;;;;33.17;12.85;;;-1.80;99.90;;;;;;5027688;28;20079;-65
2023/03/16 02:15:58;;;;;;;30.77;12.40;;;-1.90;99.90;;;;;;5030359;28;20116;-73
2023/03/16 02:18:24;;;;;;;31.33;12.77;;;-1.90;99.90;;;;;;5030483;28;20036;-70
2023/03/16 02:21:02;;;;;;;37.05;13.90;;;-1.90;99.90;;;;;;5029362;28;20068;-73
2023/03/16 02:23:28;;;;;;;33.92;12.75;;;-1.90;99.90;;;;;;5031896;28;20040;-68
2023/03/16 02:26:21;;;;;;;33.25;12.75;;;-1.90;99.90;;;;;;5030688;28;20112;-72
2023/03/16 02:29:28;;;;;;;31.45;12.43;;;-1.90;99.90;;;;;;5030203;28;20029;-73
2023/03/16 02:31:56;;;;;;;34.80;13.55;;;-1.90;99.90;;;;;;5029860;28;20155;-70
2023/03/16 02:34:23;;;;;;;30.20;13.32;;;-2.00;99.90;;;;;;5030580;28;20472;-73
2023/03/16 02:36:51;;;;;;;33.55;12.82;;;-2.00;99.90;;;;;;5029112;28;20034;-70
2023/03/16 02:39:17;;;;;;;32.03;12.73;;;-2.00;99.90;;;;;;5029494;28;20057;-65
2023/03/16 02:41:43;;;;;;;30.15;12.57;;;-2.00;99.90;;;;;;5030927;28;20044;-72
2023/03/16 02:44:15;;;;;;;29.83;12.65;;;-2.10;99.90;;;;;;5030421;28;20029;-70
2023/03/16 02:46:42;;;;;;;30.27;12.57;;;-2.00;99.90;;;;;;5030016;28;20051;-68
2023/03/16 02:49:28;;;;;;;30.17;12.70;;;-2.10;99.90;;;;;;5030740;28;20034;-70
2023/03/16 02:51:56;;;;;;;32.72;13.05;;;-2.00;99.90;;;;;;5025411;28;20048;-72
2023/03/16 02:54:23;;;;;;;34.30;13.07;;;-2.00;99.90;;;;;;5027605;28;20403;-73
2023/03/16 02:56:48;;;;;;;32.92;13.43;;;-2.00;99.90;;;;;;5029642;28;20025;-70
2023/03/16 02:59:14;;;;;;;35.70;13.93;;;-2.00;99.90;;;;;;5033101;28;20033;-71
2023/03/16 03:01:40;;;;;;;35.95;12.65;;;-1.90;99.90;;;;;;5029011;28;20073;-72
2023/03/16 03:04:06;;;;;;;32.80;13.05;;;-1.80;99.90;;;;;;5030438;28;20061;-72
2023/03/16 03:06:32;;;;;;;32.83;14.15;;;-1.70;99.90;;;;;;5027991;28;20149;-65
2023/03/16 03:08:59;;;;;;;31.15;12.10;;;-1.70;99.90;;;;;;5029427;28;20481;-71
2023/03/16 03:11:24;;;;;;;30.92;12.20;;;-1.70;99.90;;;;;;5028550;28;20042;-72
2023/03/16 03:13:50;;;;;;;33.70;11.25;;;-1.60;99.90;;;;;;5029846;28;20079;-73
2023/03/16 03:16:16;;;;;;;29.40;12.13;;;-1.50;99.90;;;;;;5030862;28;20764;-73
2023/03/16 03:18:42;;;;;;;32.35;11.20;;;-1.30;99.90;;;;;;5029505;28;20041;-73
2023/03/16 03:21:07;;;;;;;25.38;9.98;;;-1.20;99.90;;;;;;5028150;28;20033;-72
2023/03/16 03:23:36;;;;;;;32.75;11.57;;;-1.20;99.90;;;;;;5036543;28;20032;-66
2023/03/16 03:26:03;;;;;;;29.70;10.52;;;-1.10;99.90;;;;;;5032747;28;20040;-73
2023/03/16 03:28:29;;;;;;;27.65;10.68;;;-1.00;99.90;;;;;;5029963;28;20087;-72
2023/03/16 03:30:55;;;;;;;33.30;11.20;;;-0.90;99.90;;;;;;5027190;28;20246;-73
2023/03/16 03:33:21;;;;;;;27.60;10.90;;;-0.90;99.90;;;;;;5030122;28;21550;-72
2023/03/16 03:35:53;;;;;;;29.65;10.50;;;-0.80;99.90;;;;;;5029413;28;20044;-72
2023/03/16 03:38:18;;;;;;;29.85;11.10;;;-0.80;99.90;;;;;;5029910;28;20041;-70
2023/03/16 03:40:44;;;;;;;29.77;10.60;;;-0.80;99.90;;;;;;5034691;28;20044;-72
2023/03/16 03:43:10;;;;;;;27.55;10.20;;;-0.80;99.90;;;;;;5028406;28;20056;-73
2023/03/16 03:45:35;;;;;;;30.58;10.85;;;-0.70;99.90;;;;;;5028692;28;20103;-65
2023/03/16 03:48:01;;;;;;;28.80;11.32;;;-0.70;99.90;;;;;;5026752;28;20386;-74
2023/03/16 03:50:27;;;;;;;33.28;11.52;;;-0.70;99.90;;;;;;5032538;28;20104;-73
2023/03/16 03:52:52;;;;;;;26.67;11.10;;;-0.70;99.90;;;;;;5026572;28;20492;-71
2023/03/16 03:55:18;;;;;;;32.22;11.50;;;-0.60;99.90;;;;;;5029812;28;20044;-70
2023/03/16 03:57:43;;;;;;;28.65;10.50;;;-0.60;99.90;;;;;;5027450;28;20065;-70
2023/03/16 04:00:10;;;;;;;32.60;11.40;;;-0.60;99.90;;;;;;5029546;28;20037;-72
2023/03/16 04:02:37;;;;;;;29.77;10.98;;;-0.70;99.90;;;;;;5027675;28;20026;-66
2023/03/16 04:05:04;;;;;;;30.63;11.20;;;-0.70;99.90;;;;;;5028869;28;20040;-72
2023/03/16 04:07:29;;;;;;;30.13;12.00;;;-0.70;99.90;;;;;;5028233;28;20029;-72
2023/03/16 04:09:55;;;;;;;32.22;11.93;;;-0.70;99.90;;;;;;5025521;28;20740;-73
2023/03/16 04:12:21;;;;;;;33.88;12.32;;;-0.80;99.90;;;;;;5026890;28;20044;-64
2023/03/16 04:14:46;;;;;;;29.02;10.98;;;-0.70;99.90;;;;;;5027498;28;20048;-63
2023/03/16 04:17:12;;;;;;;37.47;12.10;;;-0.60;99.90;;;;;;5028414;28;20488;-63
2023/03/16 04:19:38;;;;;;;32.75;11.90;;;-0.60;99.90;;;;;;5027037;28;20083;-61
2023/03/16 04:22:04;;;;;;;31.58;12.23;;;-0.60;99.90;;;;;;5028559;28;20061;-62
2023/03/16 04:24:33;;;;;;;32.95;12.10;;;-0.60;99.90;;;;;;5027267;28;20416;-68
2023/03/16 04:27:01;;;;;;;35.20;12.73;;;-0.60;99.90;;;;;;5027068;28;20061;-67
2023/03/16 04:29:28;;;;;;;31.83;12.27;;;-0.60;99.90;;;;;;5028513;28;20563;-69
2023/03/16 04:31:54;;;;;;;36.22;13.13;;;-0.60;99.90;;;;;;5027380;28;20473;-68
2023/03/16 04:34:23;;;;;;;37.25;13.77;;;-0.60;99.90;;;;;;5028835;28;20045;-69
2023/03/16 04:36:51;;;;;;;33.78;13.05;;;-0.60;99.90;;;;;;5026473;28;20037;-65
2023/03/16 04:39:17;;;;;;;43.08;15.75;;;-0.60;99.90;;;;;;5024138;28;20038;-68
2023/03/16 04:41:43;;;;;;;48.80;18.95;;;-0.60;99.90;;;;;;5035425;28;20041;-69
2023/03/16 04:44:08;;;;;;;54.92;19.50;;;-0.60;99.90;;;;;;5028835;28;20040;-67
2023/03/16 04:46:34;;;;;;;43.60;17.73;;;-0.60;99.90;;;;;;5028503;28;20398;-68
2023/03/16 04:49:01;;;;;;;53.67;19.95;;;-0.60;99.90;;;;;;5026966;28;20022;-69
2023/03/16 04:51:27;;;;;;;38.45;15.75;;;-0.60;99.90;;;;;;5027317;28;20037;-68
2023/03/16 04:53:53;;;;;;;36.15;14.70;;;-0.60;99.90;;;;;;5021409;28;20033;-68
2023/03/16 04:56:19;;;;;;;40.83;16.63;;;-0.60;99.90;;;;;;5026484;28;20029;-67
2023/03/16 04:58:47;;;;;;;38.67;16.83;;;-0.60;99.90;;;;;;5013860;28;20044;-70
2023/03/16 05:01:13;;;;;;;40.75;17.25;;;-0.60;99.90;;;;;;5022375;28;20064;-73
2023/03/16 05:03:39;;;;;;;44.50;18.20;;;-0.60;99.90;;;;;;5027189;28;20038;-63
2023/03/16 05:06:05;;;;;;;37.33;14.82;;;-0.50;99.90;;;;;;5020979;28;20026;-69
2023/03/16 05:08:31;;;;;;;33.47;12.30;;;-0.60;99.90;;;;;;5024459;28;20026;-67
2023/03/16 05:10:58;;;;;;;28.45;12.25;;;-0.70;99.90;;;;;;5024586;28;20048;-70
2023/03/16 05:13:26;;;;;;;31.10;12.95;;;-1.30;99.90;;;;;;5023841;28;20592;-66
2023/03/16 05:15:52;;;;;;;30.00;12.48;;;-1.40;99.90;;;;;;5025186;28;20348;-70
2023/03/16 05:18:19;;;;;;;33.45;12.50;;;-1.40;99.90;;;;;;5032136;28;20036;-67
2023/03/16 05:20:45;;;;;;;34.13;13.07;;;-1.50;99.90;;;;;;5022169;28;20032;-68
2023/03/16 05:23:10;;;;;;;36.90;13.35;;;-1.20;99.90;;;;;;5026075;28;20022;-68
2023/03/16 05:25:37;;;;;;;37.50;13.50;;;-0.90;99.90;;;;;;5027675;28;20026;-67
2023/03/16 05:28:03;;;;;;;38.83;13.43;;;-0.80;99.90;;;;;;5027987;28;20116;-67
2023/03/16 05:30:30;;;;;;;35.67;13.40;;;-0.70;99.90;;;;;;5030270;28;20065;-67
2023/03/16 05:32:56;;;;;;;37.95;13.90;;;-0.60;99.90;;;;;;5030923;28;20033;-65
2023/03/16 05:35:23;;;;;;;41.45;14.55;;;-0.60;99.90;;;;;;5028615;28;20109;-68
2023/03/16 05:37:48;;;;;;;37.35;13.93;;;-0.70;99.90;;;;;;5026988;28;20545;-65
2023/03/16 05:40:19;;;;;;;39.58;15.25;;;-0.60;99.90;;;;;;5025826;28;20055;-71
2023/03/16 05:42:53;;;;;;;42.35;14.98;;;-0.40;99.90;;;;;;5028729;28;20064;-62
2023/03/16 05:45:19;;;;;;;39.90;14.98;;;-0.30;99.90;;;;;;5021516;28;20037;-68
2023/03/16 05:47:46;;;;;;;42.08;16.25;;;-0.20;99.90;;;;;;5027656;28;20380;-63
2023/03/16 05:50:15;;;;;;;37.72;15.02;;;-0.20;99.90;;;;;;5025716;28;20120;-67
2023/03/16 05:52:43;;;;;;;38.43;13.93;;;-0.10;99.90;;;;;;5027379;28;20041;-63
2023/03/16 05:55:10;;;;;;;38.65;14.20;;;0.10;99.90;;;;;;5021005;28;20484;-67
2023/03/16 05:57:35;;;;;;;46.70;15.73;;;0.20;99.90;;;;;;5024723;28;20507;-71
2023/03/16 06:00:14;;;;;;;41.38;16.15;;;0.30;99.90;;;;;;5023508;28;20033;-67
2023/03/16 06:02:46;;;;;;;37.53;14.07;;;0.30;99.90;;;;;;5028504;28;20486;-72
2023/03/16 06:05:11;;;;;;;39.05;14.32;;;0.40;99.90;;;;;;5019933;28;20057;-70
2023/03/16 06:07:37;;;;;;;38.83;15.57;;;0.40;99.90;;;;;;5022364;28;20196;-71
2023/03/16 06:10:04;;;;;;;38.90;15.38;;;0.50;99.90;;;;;;5021816;28;20045;-72
2023/03/16 06:12:30;;;;;;;35.03;14.20;;;0.50;99.90;;;;;;5021357;28;20478;-68
2023/03/16 06:14:56;;;;;;;39.75;15.38;;;0.50;99.90;;;;;;5022809;28;20037;-68
2023/03/16 06:17:21;;;;;;;38.15;14.40;;;0.60;99.90;;;;;;5025162;28;20033;-68
2023/03/16 06:19:47;;;;;;;37.17;13.90;;;0.60;99.90;;;;;;5018324;28;20041;-62
2023/03/16 06:22:12;;;;;;;38.35;14.98;;;0.70;99.90;;;;;;5028660;28;20041;-67
2023/03/16 06:24:38;;;;;;;35.38;14.60;;;0.70;99.90;;;;;;5022345;28;20634;-67
2023/03/16 06:27:04;;;;;;;35.88;14.20;;;0.80;99.90;;;;;;5024646;28;20051;-66
2023/03/16 06:29:29;;;;;;;34.30;13.20;;;0.80;99.90;;;;;;5028296;28;20026;-68
2023/03/16 06:31:55;;;;;;;33.08;13.27;;;0.90;99.90;;;;;;5030025;28;20520;-68
2023/03/16 06:34:21;;;;;;;32.88;13.45;;;0.90;99.90;;;;;;5025918;28;20133;-67
2023/03/16 06:36:47;;;;;;;33.08;12.77;;;1.00;99.90;;;;;;5030551;28;20104;-66
2023/03/16 06:39:13;;;;;;;31.65;13.13;;;1.10;99.90;;;;;;5031858;28;20037;-68
2023/03/16 06:41:41;;;;;;;30.95;12.25;;;1.20;99.90;;;;;;5029325;28;20033;-69
2023/03/16 06:44:07;;;;;;;32.42;13.32;;;1.20;99.90;;;;;;5024902;28;20025;-69
2023/03/16 06:46:33;;;;;;;143.88;55.83;;;1.30;99.90;;;;;;5030709;28;20108;-69
2023/03/16 06:48:59;;;;;;;142.70;54.58;;;1.30;99.90;;;;;;5025326;28;20113;-66
2023/03/16 06:51:26;;;;;;;37.25;15.00;;;1.40;99.90;;;;;;5028192;28;20073;-71
2023/03/16 06:53:51;;;;;;;35.05;14.52;;;1.40;99.90;;;;;;5030069;28;20469;-70
2023/03/16 06:56:17;;;;;;;33.20;12.60;;;1.40;99.90;;;;;;5030535;28;20043;-73
2023/03/16 06:58:43;;;;;;;30.13;12.82;;;1.50;99.90;;;;;;5025592;28;20116;-68
2023/03/16 07:01:08;;;;;;;30.58;12.70;;;1.50;99.90;;;;;;5022546;28;20021;-68
2023/03/16 07:03:34;;;;;;;31.50;12.27;;;1.60;99.90;;;;;;5023461;28;20030;-63
2023/03/16 07:06:00;;;;;;;37.10;15.50;;;1.70;99.90;;;;;;5024080;28;20083;-68
2023/03/16 07:08:26;;;;;;;32.60;13.27;;;1.70;99.90;;;;;;5028424;28;20040;-69
2023/03/16 07:10:53;;;;;;;30.67;12.50;;;1.80;99.90;;;;;;5017525;28;20049;-64
2023/03/16 07:13:19;;;;;;;28.33;12.05;;;1.80;99.90;;;;;;5029952;28;20052;-67
2023/03/16 07:15:44;;;;;;;30.38;11.45;;;1.80;99.90;;;;;;5028070;28;20041;-66
2023/03/16 07:18:11;;;;;;;27.77;12.02;;;1.80;99.90;;;;;;5025216;28;20029;-66
2023/03/16 07:20:37;;;;;;;29.90;11.90;;;1.90;99.90;;;;;;5020666;28;20044;-68
2023/03/16 07:23:03;;;;;;;32.65;11.60;;;1.90;99.90;;;;;;5028147;28;20396;-68
2023/03/16 07:25:30;;;;;;;29.80;12.93;;;2.00;99.90;;;;;;5027170;28;20021;-70
2023/03/16 07:27:56;;;;;;;28.30;11.43;;;2.10;99.90;;;;;;5027471;28;20104;-71
2023/03/16 07:30:24;;;;;;;28.27;11.65;;;2.20;99.90;;;;;;5034528;28;20112;-70
2023/03/16 07:32:50;;;;;;;30.10;13.98;;;2.30;99.90;;;;;;5025370;28;20034;-64
2023/03/16 07:35:16;;;;;;;36.05;16.40;;;2.40;99.90;;;;;;5027197;28;20033;-70
2023/03/16 07:37:42;;;;;;;26.38;10.95;;;2.50;99.90;;;;;;5025441;28;20029;-69
2023/03/16 07:40:09;;;;;;;38.67;22.58;;;2.50;99.90;;;;;;5021951;28;20033;-68
2023/03/16 07:42:35;;;;;;;27.60;11.15;;;2.60;99.90;;;;;;5026350;28;20489;-67
2023/03/16 07:45:02;;;;;;;28.23;11.85;;;2.60;99.90;;;;;;5025559;28;20075;-69
2023/03/16 07:47:30;;;;;;;23.70;9.82;;;2.70;99.90;;;;;;5022451;28;20025;-68
2023/03/16 07:49:56;;;;;;;31.30;12.98;;;2.80;99.90;;;;;;5031083;28;20108;-70
2023/03/16 07:52:22;;;;;;;22.73;9.65;;;2.90;99.90;;;;;;5028338;28;20530;-67
2023/03/16 07:54:48;;;;;;;45.15;23.30;;;3.00;99.90;;;;;;5023087;28;20047;-64
2023/03/16 07:57:14;;;;;;;29.75;13.43;;;3.00;99.90;;;;;;5027485;28;20033;-67
2023/03/16 07:59:40;;;;;;;27.02;11.20;;;3.10;99.90;;;;;;5024208;28;20113;-69
2023/03/16 08:02:11;;;;;;;29.70;13.00;;;3.10;99.90;;;;;;5036018;28;20048;-68
2023/03/16 08:04:37;;;;;;;21.85;10.30;;;3.30;99.90;;;;;;5023361;28;20029;-66
2023/03/16 08:07:02;;;;;;;23.70;10.57;;;3.40;99.90;;;;;;5024268;28;20021;-68
2023/03/16 08:09:28;;;;;;;24.70;10.65;;;3.50;99.90;;;;;;5026841;28;20057;-67
2023/03/16 08:11:53;;;;;;;23.33;10.02;;;3.60;99.90;;;;;;5028189;28;20450;-64
2023/03/16 08:14:19;;;;;;;22.38;9.40;;;3.80;99.90;;;;;;5026859;28;20396;-63
2023/03/16 08:16:45;;;;;;;26.73;11.18;;;3.80;99.90;;;;;;5023078;28;20040;-65
2023/03/16 08:19:11;;;;;;;26.23;10.45;;;3.90;99.90;;;;;;5027737;28;20116;-65
2023/03/16 08:21:37;;;;;;;22.90;10.45;;;4.00;99.90;;;;;;5028785;28;20040;-64
2023/03/16 08:24:03;;;;;;;23.58;10.48;;;3.90;99.90;;;;;;5025813;28;20664;-66
2023/03/16 08:26:28;;;;;;;28.63;9.43;;;3.90;99.90;;;;;;5025895;28;20025;-66
2023/03/16 08:28:54;;;;;;;24.83;9.82;;;3.90;99.90;;;;;;5029834;28;20052;-61
2023/03/16 08:31:20;;;;;;;22.23;9.75;;;4.00;99.90;;;;;;5037970;28;20037;-64
2023/03/16 08:33:47;;;;;;;23.15;10.32;;;4.10;99.90;;;;;;5034388;28;20052;-63
2023/03/16 08:36:15;;;;;;;23.50;9.23;;;4.10;99.90;;;;;;5030221;28;20021;-65
2023/03/16 08:38:42;;;;;;;21.27;9.40;;;4.40;99.90;;;;;;5031880;28;20059;-65
2023/03/16 08:41:08;;;;;;;22.50;9.32;;;4.50;99.90;;;;;;5024530;28;20037;-64
2023/03/16 08:43:36;;;;;;;22.10;10.40;;;4.60;99.90;;;;;;5032435;28;20025;-63
2023/03/16 08:46:03;;;;;;;20.88;9.57;;;4.70;99.90;;;;;;5028353;28;20032;-63
2023/03/16 08:48:28;;;;;;;21.77;9.32;;;4.80;99.90;;;;;;5029643;28;20024;-63
2023/03/16 08:50:54;;;;;;;20.48;9.70;;;4.90;99.90;;;;;;5030208;28;20055;-61
2023/03/16 08:53:20;;;;;;;23.23;8.85;;;4.90;99.90;;;;;;5027627;28;20037;-64
2023/03/16 08:55:46;;;;;;;19.52;8.63;;;5.00;99.90;;;;;;5027832;28;20381;-65
2023/03/16 08:58:12;;;;;;;22.17;9.55;;;5.10;99.90;;;;;;5027204;28;20609;-64
2023/03/16 09:00:38;;;;;;;22.35;10.30;;;5.20;99.90;;;;;;5028228;28;20134;-65
2023/03/16 09:03:05;;;;;;;22.35;10.30;;;5.30;99.90;;;;;;5027177;28;20156;-64
2023/03/16 09:05:32;;;;;;;25.52;12.18;;;5.40;99.90;;;;;;5035380;28;20029;-66
2023/03/16 09:07:59;;;;;;;16.10;8.00;;;5.50;99.90;;;;;;5024053;28;20033;-64
2023/03/16 09:10:26;;;;;;;18.83;9.02;;;5.40;99.90;;;;;;5029317;28;20148;-65
2023/03/16 09:12:53;;;;;;;23.85;10.23;;;5.40;99.90;;;;;;5027305;28;20103;-61
2023/03/16 09:15:19;;;;;;;27.80;12.50;;;5.60;99.90;;;;;;5026804;28;20049;-65
2023/03/16 09:17:46;;;;;;;21.48;9.50;;;5.90;99.90;;;;;;5028199;28;20026;-64
2023/03/16 09:20:14;;;;;;;20.25;8.80;;;5.80;99.90;;;;;;5027002;28;20036;-64
2023/03/16 09:22:40;;;;;;;18.55;8.63;;;5.80;99.90;;;;;;5027977;28;20505;-67
2023/03/16 09:25:09;;;;;;;16.85;8.23;;;5.70;99.90;;;;;;5026207;28;20033;-66
2023/03/16 09:27:38;;;;;;;24.42;11.15;;;5.70;99.90;;;;;;5029828;28;20129;-64
2023/03/16 09:30:06;;;;;;;22.58;8.98;;;5.70;99.90;;;;;;5025519;28;20405;-63
2023/03/16 09:32:32;;;;;;;16.30;8.10;;;5.80;99.90;;;;;;5019093;28;20029;-65
2023/03/16 09:34:58;;;;;;;22.77;10.60;;;5.90;99.90;;;;;;5027180;28;20095;-64
2023/03/16 09:37:25;;;;;;;16.88;8.18;;;6.30;99.90;;;;;;5027953;28;20041;-64
2023/03/16 09:39:51;;;;;;;20.15;9.07;;;6.50;99.90;;;;;;5024699;28;20052;-65
2023/03/16 09:42:36;;;;;;;21.13;7.90;;;6.70;99.90;;;;;;5027483;28;20069;-65
2023/03/16 09:45:14;;;;;;;16.92;8.55;;;6.80;99.90;;;;;;5027083;28;20038;-63
2023/03/16 09:47:44;;;;;;;16.30;7.28;;;6.90;99.90;;;;;;5020855;28;20108;-67
2023/03/16 09:50:20;;;;;;;14.52;7.35;;;7.00;99.90;;;;;;5025447;28;20025;-64
2023/03/16 09:53:00;;;;;;;17.95;7.78;;;7.20;99.90;;;;;;5024079;28;20037;-65
2023/03/16 09:55:26;;;;;;;15.70;6.70;;;7.20;99.90;;;;;;5028295;28;20080;-66
2023/03/16 09:57:52;;;;;;;16.42;7.78;;;7.30;99.90;;;;;;5026549;28;20057;-66
2023/03/16 10:00:20;;;;;;;16.60;7.50;;;7.10;99.90;;;;;;5025541;28;20954;-64
2023/03/16 10:03:12;;;;;;;13.05;6.03;;;7.20;99.90;;;;;;5033841;28;20048;-66
2023/03/16 10:05:38;;;;;;;15.23;6.85;;;7.30;99.90;;;;;;5029292;28;20040;-66
2023/03/16 10:08:07;;;;;;;19.98;6.45;;;7.40;99.90;;;;;;5030718;28;20539;-65
2023/03/16 10:11:05;;;;;;;13.00;6.20;;;7.30;99.90;;;;;;5030236;28;20053;-65
2023/03/16 10:14:03;;;;;;;11.75;5.53;;;7.40;99.90;;;;;;5031211;28;20528;-64
2023/03/16 10:16:42;;;;;;;12.50;5.38;;;7.60;99.90;;;;;;5032201;28;20032;-64
2023/03/16 10:19:18;;;;;;;12.98;6.03;;;7.70;99.90;;;;;;5025481;28;20029;-65
2023/03/16 10:21:44;;;;;;;11.00;5.57;;;7.70;99.90;;;;;;5012126;28;20490;-66
2023/03/16 10:24:41;;;;;;;12.60;5.40;;;7.90;99.90;;;;;;5011376;28;20034;-66
2023/03/16 10:27:16;;;;;;;11.77;5.22;;;8.00;99.90;;;;;;5011188;28;20432;-63
2023/03/16 10:29:41;;;;;;;12.70;5.55;;;8.10;99.90;;;;;;5021680;28;20033;-65
2023/03/16 10:32:15;;;;;;;10.75;4.88;;;8.00;99.90;;;;;;5029767;28;20037;-65
2023/03/16 10:34:51;;;;;;;8.43;4.30;;;8.20;99.90;;;;;;5028171;28;20041;-65
2023/03/16 10:37:17;;;;;;;10.95;5.25;;;8.50;99.90;;;;;;5030468;28;20029;-65
2023/03/16 10:39:43;;;;;;;11.32;4.95;;;8.50;99.90;;;;;;5030987;28;20040;-64
2023/03/16 10:42:20;;;;;;;7.63;4.45;;;8.40;99.90;;;;;;5030306;28;20565;-63
2023/03/16 10:44:46;;;;;;;8.23;4.65;;;8.40;99.90;;;;;;5025476;28;20482;-65
2023/03/16 10:47:21;;;;;;;11.05;4.28;;;8.20;99.90;;;;;;5035175;28;20029;-66
2023/03/16 10:49:48;;;;;;;10.02;4.05;;;8.30;99.90;;;;;;5023461;28;20041;-66
2023/03/16 10:52:25;;;;;;;11.75;4.50;;;8.60;99.90;;;;;;5029902;28;20434;-65
2023/03/16 10:54:55;;;;;;;8.75;4.53;;;8.80;99.90;;;;;;5028397;28;20950;-66
2023/03/16 10:57:33;;;;;;;10.05;4.28;;;8.90;99.90;;;;;;5025462;28;20044;-65
2023/03/16 11:00:13;;;;;;;11.57;4.55;;;9.10;99.90;;;;;;5024897;28;20115;-62
2023/03/16 11:02:39;;;;;;;8.65;4.50;;;9.40;99.90;;;;;;5021939;28;20509;-64
2023/03/16 11:05:33;;;;;;;10.25;4.57;;;9.40;99.90;;;;;;5028608;28;20029;-63
2023/03/16 11:08:00;;;;;;;15.40;5.15;;;9.30;99.90;;;;;;5023588;28;20095;-62
2023/03/16 11:10:33;;;;;;;8.88;4.18;;;9.30;99.90;;;;;;5026254;28;20145;-66
2023/03/16 11:13:18;;;;;;;7.55;4.05;;;9.20;99.90;;;;;;5029644;28;20041;-62
2023/03/16 11:15:48;;;;;;;8.73;4.60;;;9.30;99.90;;;;;;5022618;28;20066;-66
2023/03/16 11:18:32;;;;;;;9.60;5.47;;;9.40;99.90;;;;;;5030433;28;20036;-65
2023/03/16 11:21:06;;;;;;;10.35;4.40;;;9.90;99.90;;;;;;5035501;28;20075;-66
2023/03/16 11:23:35;;;;;;;8.50;4.25;;;9.70;99.90;;;;;;5026808;28;20398;-66
2023/03/16 11:26:06;;;;;;;9.63;4.20;;;9.70;99.90;;;;;;5029118;28;20575;-61
2023/03/16 11:28:31;;;;;;;;;;;9.90;99.90;;;;;;5028307;28;20113;-66
2023/03/16 11:31:07;;;;;;;11.15;4.68;;;10.00;99.90;;;;;;5027997;28;20355;-66
2023/03/16 11:33:34;;;;;;;10.63;4.80;;;10.20;99.90;;;;;;5030266;28;20045;-67
2023/03/16 11:36:19;;;;;;;9.50;4.43;;;10.00;99.90;;;;;;5029162;28;20036;-66
2023/03/16 11:38:56;;;;;;;9.15;4.22;;;10.10;99.90;;;;;;5029627;28;20083;-68
2023/03/16 11:41:34;;;;;;;14.48;4.95;;;10.00;99.90;;;;;;5028260;28;20517;-67
2023/03/16 11:44:15;;;;;;;10.27;4.30;;;10.20;99.90;;;;;;5025657;28;20041;-68
2023/03/16 11:46:43;;;;;;;;;;;10.10;99.90;;;;;;5027132;28;20034;-67
2023/03/16 11:49:27;;;;;;;8.73;3.83;;;10.00;99.90;;;;;;5028808;28;19916;-67
2023/03/16 11:51:59;;;;;;;6.40;3.63;;;9.80;99.90;;;;;;5027311;28;20470;-68
2023/03/16 11:54:50;;;;;;;8.20;3.38;;;10.00;99.90;;;;;;5029228;28;20041;-68
2023/03/16 11:57:41;;;;;;;5.97;3.40;;;10.10;99.90;;;;;;5021006;28;20026;-70
2023/03/16 12:00:29;;;;;;;8.15;3.47;;;10.10;99.90;;;;;;5028999;28;20029;-69
2023/03/16 12:02:57;;;;;;;5.93;3.42;;;10.20;99.90;;;;;;5028613;28;20026;-68
2023/03/16 12:05:38;;;;;;;8.43;4.15;;;10.40;99.90;;;;;;5027527;28;20030;-68
2023/03/16 12:08:23;;;;;;;7.22;3.78;;;10.40;99.90;;;;;;5028542;28;20699;-63
2023/03/16 12:11:15;;;;;;;7.07;3.85;;;10.60;99.90;;;;;;5029509;28;20490;-67
2023/03/16 12:13:51;;;;;;;9.35;3.97;;;10.70;99.90;;;;;;5028055;28;20752;-67
2023/03/16 12:16:22;;;;;;;11.07;4.18;;;11.00;99.90;;;;;;5028062;28;20021;-63
2023/03/16 12:19:21;;;;;;;7.10;3.58;;;11.30;99.90;;;;;;5026770;28;20116;-67
2023/03/16 12:21:53;;;;;;;8.35;3.70;;;11.20;99.40;;;;;;5024152;28;20026;-66
2023/03/16 12:24:25;;;;;;;7.57;3.47;;;11.50;99.90;;;;;;5026450;28;20494;-65
2023/03/16 12:26:52;;;;;;;8.77;3.70;;;11.60;96.60;;;;;;5019000;28;20053;-67
2023/03/16 12:29:34;;;;;;;8.50;4.43;;;11.20;97.10;;;;;;5019992;28;20108;-67
2023/03/16 12:32:14;;;;;;;8.20;3.85;;;11.20;98.40;;;;;;5034498;28;20043;-66
2023/03/16 12:34:42;;;;;;;7.65;3.85;;;11.30;98.90;;;;;;5021909;28;20029;-67
2023/03/16 12:37:40;;;;;;;8.73;4.00;;;11.70;98.30;;;;;;5029027;28;20490;-62
2023/03/16 12:40:31;;;;;;;7.88;4.13;;;11.30;96.90;;;;;;5025461;28;20029;-63
2023/03/16 12:42:57;;;;;;;7.25;3.50;;;11.00;99.90;;;;;;5028493;28;20072;-69
2023/03/16 12:45:31;;;;;;;7.63;2.97;;;10.60;97.40;;;;;;5025378;28;20057;-67
2023/03/16 12:48:06;;;;;;;12.57;3.70;;;10.20;97.40;;;;;;5032137;28;20478;-68